createdAt,value
2019-04-21T00:02:31.987Z,12.30
2019-04-21T00:05:10.741Z,12.30
2019-04-21T00:07:44.987Z,12.30
2019-04-21T00:10:18.753Z,12.40
2019-04-21T00:12:41.877Z,12.30
2019-04-21T00:15:06.113Z,12.30
2019-04-21T00:17:29.706Z,12.30
2019-04-21T00:20:10.272Z,12.20
2019-04-21T00:22:41.284Z,12.20
2019-04-21T00:25:13.951Z,12.20
2019-04-21T00:27:46.442Z,12.20
2019-04-21T00:30:21.679Z,12.10
2019-04-21T00:32:46.506Z,12.10
2019-04-21T00:35:08.536Z,12.10
2019-04-21T00:37:58.864Z,12.20
2019-04-21T00:40:23.996Z,12.20
2019-04-21T00:42:52.149Z,12.20
2019-04-21T00:45:20.681Z,12.20
2019-04-21T00:47:58.730Z,12.10
2019-04-21T00:50:31.430Z,12.00
2019-04-21T00:53:08.294Z,12.00
2019-04-21T00:55:45.865Z,11.90
2019-04-21T00:58:17.550Z,11.80
2019-04-21T01:00:49.578Z,11.80
2019-04-21T01:03:16.061Z,11.70
2019-04-21T01:05:50.146Z,11.80
2019-04-21T01:08:18.605Z,11.80
2019-04-21T01:10:38.114Z,11.90
2019-04-21T01:13:21.631Z,11.90
2019-04-21T01:15:48.918Z,12.00
2019-04-21T01:18:16.693Z,12.00
2019-04-21T01:20:27.966Z,12.00
2019-04-21T01:22:57.835Z,12.00
2019-04-21T01:25:33.041Z,12.10
2019-04-21T01:28:16.659Z,12.10
2019-04-21T01:30:50.690Z,12.20
2019-04-21T01:33:21.985Z,12.20
2019-04-21T01:35:48.259Z,12.20
2019-04-21T01:38:27.339Z,12.20
2019-04-21T01:40:56.744Z,12.10
2019-04-21T01:43:22.147Z,12.10
2019-04-21T01:45:49.120Z,12.10
2019-04-21T01:48:19.645Z,12.00
2019-04-21T01:50:51.098Z,12.00
2019-04-21T01:53:36.482Z,12.00
2019-04-21T01:56:11.624Z,12.00
2019-04-21T01:58:38.039Z,12.00
2019-04-21T02:01:08.693Z,11.90
2019-04-21T02:06:22.777Z,11.90
2019-04-21T02:08:51.431Z,11.90
2019-04-21T02:11:24.505Z,11.80
2019-04-21T02:13:57.585Z,11.80
2019-04-21T02:16:22.770Z,11.70
2019-04-21T02:18:52.958Z,11.70
2019-04-21T02:21:20.391Z,11.70
2019-04-21T02:24:01.928Z,11.70
2019-04-21T02:26:28.587Z,11.70
2019-04-21T02:29:02.018Z,11.70
2019-04-21T02:31:36.093Z,11.60
2019-04-21T02:34:11.359Z,11.60
2019-04-21T02:41:51.161Z,11.70
2019-04-21T02:44:08.644Z,11.70
2019-04-21T02:46:42.126Z,11.60
2019-04-21T02:49:31.117Z,11.70
2019-04-21T02:51:48.117Z,11.70
2019-04-21T02:54:43.937Z,11.70
2019-04-21T02:56:58.952Z,11.70
2019-04-21T03:04:42.597Z,11.60
2019-04-21T03:15:00.242Z,11.50
2019-04-21T03:17:22.016Z,11.50
2019-04-21T03:22:20.717Z,11.60
2019-04-21T03:27:31.101Z,11.80
2019-04-21T03:29:55.472Z,11.80
2019-04-21T03:37:23.404Z,11.80
2019-04-21T03:47:36.123Z,11.80
2019-04-21T03:52:29.980Z,11.80
2019-04-21T04:03:30.095Z,11.80
2019-04-21T04:05:49.443Z,11.80
2019-04-21T04:08:24.103Z,11.80
2019-04-21T04:10:42.748Z,11.80
2019-04-21T04:13:14.089Z,11.80
2019-04-21T04:15:49.043Z,11.80
2019-04-21T04:18:17.605Z,11.90
2019-04-21T04:23:35.546Z,11.90
2019-04-21T04:25:42.991Z,11.90
2019-04-21T04:28:24.386Z,11.90
2019-04-21T04:30:47.835Z,12.00
2019-04-21T04:33:20.809Z,12.00
2019-04-21T04:38:24.160Z,12.00
2019-04-21T04:41:06.160Z,12.00
2019-04-21T04:45:59.981Z,12.10
2019-04-21T04:48:35.215Z,12.10
2019-04-21T04:51:07.382Z,12.10
2019-04-21T04:56:12.321Z,12.10
2019-04-21T04:59:20.145Z,12.10
2019-04-21T05:11:39.887Z,12.40
2019-04-21T05:16:40.988Z,12.50
2019-04-21T05:21:34.420Z,12.50
2019-04-21T05:23:52.640Z,12.40
2019-04-21T05:26:14.352Z,12.40
2019-04-21T05:28:47.349Z,12.40
2019-04-21T05:31:31.710Z,12.40
2019-04-21T05:34:03.097Z,12.40
2019-04-21T05:36:44.783Z,12.40
2019-04-21T05:39:10.810Z,12.40
2019-04-21T05:41:37.310Z,12.40
2019-04-21T05:44:24.417Z,12.50
2019-04-21T05:47:05.559Z,12.50
2019-04-21T05:49:20.481Z,12.60
2019-04-21T05:51:52.631Z,12.70
2019-04-21T05:54:41.781Z,12.70
2019-04-21T05:57:05.755Z,12.90
2019-04-21T05:59:32.343Z,13.10
2019-04-21T06:02:16.574Z,13.20
2019-04-21T06:05:02.481Z,13.40
2019-04-21T06:07:13.313Z,13.50
2019-04-21T06:09:46.847Z,13.60
2019-04-21T06:12:11.725Z,13.80
2019-04-21T06:14:43.740Z,13.90
2019-04-21T06:17:19.238Z,14.00
2019-04-21T06:22:09.909Z,14.30
2019-04-21T06:24:54.338Z,14.40
2019-04-21T06:27:19.311Z,14.50
2019-04-21T06:29:46.641Z,14.50
2019-04-21T06:35:07.164Z,14.70
2019-04-21T06:37:40.567Z,14.70
2019-04-21T06:40:01.820Z,14.80
2019-04-21T06:42:16.494Z,14.90
2019-04-21T06:45:00.996Z,14.90
2019-04-21T06:47:47.441Z,15.00
2019-04-21T06:49:48.575Z,15.10
2019-04-21T06:52:44.829Z,15.30
2019-04-21T06:55:00.092Z,15.40
2019-04-21T06:57:21.823Z,15.40
2019-04-21T06:59:50.016Z,15.50
2019-04-21T07:02:37.800Z,15.70
2019-04-21T07:04:54.705Z,15.80
2019-04-21T07:07:26.126Z,15.90
2019-04-21T07:09:57.234Z,16.00
2019-04-21T07:12:22.011Z,16.00
2019-04-21T07:14:59.559Z,16.00
2019-04-21T07:17:28.191Z,16.00
2019-04-21T07:20:01.844Z,16.00
2019-04-21T07:22:35.359Z,16.20
2019-04-21T07:25:03.076Z,16.20
2019-04-21T07:27:31.990Z,16.20
2019-04-21T07:30:04.928Z,16.30
2019-04-21T07:32:51.534Z,16.40
2019-04-21T07:35:06.732Z,16.40
2019-04-21T07:37:29.923Z,16.60
2019-04-21T07:40:03.746Z,16.80
2019-04-21T07:42:28.176Z,17.20
2019-04-21T07:44:53.547Z,17.70
2019-04-21T07:47:36.637Z,18.00
2019-04-21T07:50:07.393Z,18.40
2019-04-21T07:52:46.919Z,18.60
2019-04-21T07:57:36.724Z,19.20
2019-04-21T08:00:29.706Z,19.10
2019-04-21T08:02:40.306Z,18.70
2019-04-21T08:05:13.569Z,18.80
2019-04-21T08:10:11.649Z,19.30
2019-04-21T08:12:39.069Z,19.80
2019-04-21T08:15:39.925Z,20.40
2019-04-21T08:17:42.571Z,20.60
2019-04-21T08:20:15.635Z,20.70
2019-04-21T08:22:48.105Z,21.10
2019-04-21T08:25:18.255Z,21.70
2019-04-21T08:27:49.546Z,21.40
2019-04-21T08:30:21.469Z,21.20
2019-04-21T08:40:29.107Z,21.10
2019-04-21T08:42:52.388Z,21.10
2019-04-21T08:45:21.827Z,21.10
2019-04-21T08:47:55.339Z,21.10
2019-04-21T08:50:22.610Z,21.10
2019-04-21T08:52:57.048Z,21.10
2019-04-21T08:55:40.076Z,20.80
2019-04-21T08:58:30.907Z,21.10
2019-04-21T09:00:56.299Z,21.50
2019-04-21T09:03:42.983Z,21.10
2019-04-21T09:06:29.791Z,21.30
2019-04-21T09:08:47.132Z,21.30
2019-04-21T09:11:13.050Z,21.70
2019-04-21T09:13:47.677Z,21.70
2019-04-21T09:16:16.894Z,21.90
2019-04-21T09:18:43.343Z,21.80
2019-04-21T09:21:19.430Z,21.80
2019-04-21T09:23:50.821Z,21.90
2019-04-21T09:26:18.649Z,21.60
2019-04-21T09:28:45.118Z,21.60
2019-04-21T09:31:06.316Z,21.70
2019-04-21T09:33:39.053Z,21.80
2019-04-21T09:36:07.917Z,21.90
2019-04-21T09:38:38.062Z,22.00
2019-04-21T09:41:06.658Z,22.00
2019-04-21T09:43:42.071Z,22.40
2019-04-21T09:46:06.519Z,22.60
2019-04-21T09:48:49.122Z,22.80
2019-04-21T09:51:06.538Z,23.10
2019-04-21T09:53:38.768Z,23.50
2019-04-21T09:56:13.129Z,23.70
2019-04-21T09:58:42.457Z,23.50
2019-04-21T10:01:19.739Z,23.80
2019-04-21T10:03:44.839Z,23.80
2019-04-21T10:06:09.288Z,24.30
2019-04-21T10:08:38.624Z,24.80
2019-04-21T10:11:07.968Z,24.90
2019-04-21T10:13:36.933Z,24.60
2019-04-21T10:16:23.986Z,24.80
2019-04-21T10:18:52.780Z,24.70
2019-04-21T10:21:22.040Z,24.80
2019-04-21T10:23:52.302Z,24.80
2019-04-21T10:26:22.173Z,24.70
2019-04-21T10:28:51.142Z,24.30
2019-04-21T10:31:20.793Z,23.80
2019-04-21T10:33:50.426Z,23.70
2019-04-21T10:36:20.403Z,23.60
2019-04-21T10:38:52.203Z,23.10
2019-04-21T10:41:21.379Z,23.50
2019-04-21T10:43:51.382Z,23.60
2019-04-21T10:46:20.339Z,23.60
2019-04-21T10:48:49.006Z,23.80
2019-04-21T10:51:19.048Z,23.90
2019-04-21T10:53:54.243Z,24.10
2019-04-21T10:56:30.623Z,24.10
2019-04-21T10:58:54.193Z,24.20
2019-04-21T11:01:25.224Z,24.30
2019-04-21T11:03:58.579Z,24.40
2019-04-21T11:06:28.793Z,24.60
2019-04-21T11:09:01.014Z,24.60
2019-04-21T11:11:28.260Z,24.50
2019-04-21T11:13:57.041Z,24.60
2019-04-21T11:16:26.905Z,24.80
2019-04-21T11:18:56.095Z,25.00
2019-04-21T11:21:25.183Z,25.20
2019-04-21T11:23:54.273Z,25.00
2019-04-21T11:26:24.330Z,24.90
2019-04-21T11:28:54.925Z,24.60
2019-04-21T11:31:25.012Z,24.50
2019-04-21T11:33:55.374Z,24.60
2019-04-21T11:36:25.014Z,24.40
2019-04-21T11:39:12.409Z,24.80
2019-04-21T11:41:29.827Z,24.80
2019-04-21T11:43:59.257Z,24.60
2019-04-21T11:46:28.685Z,24.50
2019-04-21T11:48:58.156Z,24.40
2019-04-21T11:51:27.242Z,24.40
2019-04-21T11:53:56.945Z,24.50
2019-04-21T11:56:27.117Z,24.30
2019-04-21T11:58:57.756Z,24.20
2019-04-21T12:01:27.651Z,24.10
2019-04-21T12:03:58.037Z,24.10
2019-04-21T12:06:32.244Z,24.10
2019-04-21T12:09:01.055Z,24.00
2019-04-21T12:11:29.410Z,23.90
2019-04-21T12:13:58.715Z,23.80
2019-04-21T12:16:28.632Z,23.80
2019-04-21T12:18:58.822Z,23.40
2019-04-21T12:21:31.139Z,23.30
2019-04-21T12:23:58.602Z,23.40
2019-04-21T12:26:28.341Z,23.70
2019-04-21T12:28:57.646Z,23.80
2019-04-21T12:31:45.497Z,23.70
2019-04-21T12:34:16.061Z,23.80
2019-04-21T12:36:46.296Z,24.10
2019-04-21T12:39:16.893Z,24.00
2019-04-21T12:41:46.682Z,24.00
2019-04-21T12:44:15.745Z,24.20
2019-04-21T12:46:45.594Z,24.40
2019-04-21T12:49:15.839Z,24.30
2019-04-21T12:51:46.126Z,24.60
2019-04-21T12:54:15.560Z,24.60
2019-04-21T12:56:45.573Z,24.80
2019-04-21T12:59:14.998Z,24.90
2019-04-21T13:01:45.287Z,25.00
2019-04-21T13:04:15.636Z,25.00
2019-04-21T13:06:45.761Z,24.50
2019-04-21T13:09:19.863Z,24.40
2019-04-21T13:11:46.899Z,24.30
2019-04-21T13:14:16.283Z,24.30
2019-04-21T13:16:45.682Z,23.70
2019-04-21T13:19:15.477Z,23.60
2019-04-21T13:21:45.715Z,23.60
2019-04-21T13:24:15.894Z,23.80
2019-04-21T13:26:52.241Z,23.80
2019-04-21T13:29:16.498Z,23.70
2019-04-21T13:31:45.522Z,24.00
2019-04-21T13:34:15.788Z,24.00
2019-04-21T13:36:45.531Z,24.00
2019-04-21T13:39:53.607Z,24.20
2019-04-21T13:42:06.344Z,24.00
2019-04-21T13:44:28.871Z,23.70
2019-04-21T13:46:58.815Z,23.70
2019-04-21T13:49:27.894Z,23.50
2019-04-21T13:51:56.612Z,23.10
2019-04-21T13:54:25.780Z,22.80
2019-04-21T13:56:56.398Z,22.80
2019-04-21T13:59:26.402Z,23.00
2019-04-21T14:01:55.844Z,23.10
2019-04-21T14:04:25.341Z,23.20
2019-04-21T14:06:54.551Z,23.50
2019-04-21T14:09:35.802Z,23.60
2019-04-21T14:11:55.771Z,23.90
2019-04-21T14:14:26.154Z,23.80
2019-04-21T14:16:56.180Z,23.50
2019-04-21T14:19:25.634Z,23.20
2019-04-21T14:21:55.351Z,23.10
2019-04-21T14:24:26.716Z,22.80
2019-04-21T14:26:56.295Z,22.60
2019-04-21T14:29:25.762Z,22.70
2019-04-21T14:31:56.038Z,22.70
2019-04-21T14:34:25.969Z,22.80
2019-04-21T14:36:56.810Z,22.60
2019-04-21T14:39:26.359Z,22.70
2019-04-21T14:41:56.104Z,22.70
2019-04-21T14:44:27.098Z,22.60
2019-04-21T14:47:00.990Z,22.40
2019-04-21T14:49:39.341Z,22.40
2019-04-21T14:52:12.992Z,22.50
2019-04-21T14:54:44.588Z,22.50
2019-04-21T14:57:13.980Z,22.30
2019-04-21T14:59:42.862Z,22.10
2019-04-21T15:02:12.055Z,22.10
2019-04-21T15:04:41.750Z,22.40
2019-04-21T15:07:10.639Z,22.60
2019-04-21T15:09:41.218Z,22.40
2019-04-21T15:12:10.180Z,22.40
2019-04-21T15:14:40.254Z,22.10
2019-04-21T15:17:09.710Z,22.30
2019-04-21T15:19:38.534Z,22.10
2019-04-21T15:22:08.233Z,22.00
2019-04-21T15:24:38.272Z,21.80
2019-04-21T15:27:07.532Z,21.50
2019-04-21T15:29:36.630Z,21.40
2019-04-21T15:32:06.333Z,21.40
2019-04-21T15:34:36.085Z,21.60
2019-04-21T15:37:06.168Z,21.40
2019-04-21T15:39:35.470Z,21.10
2019-04-21T15:42:04.565Z,20.70
2019-04-21T15:44:34.619Z,20.70
2019-04-21T15:47:04.102Z,20.80
2019-04-21T15:49:58.932Z,20.70
2019-04-21T15:52:22.281Z,20.60
2019-04-21T15:54:52.674Z,20.60
2019-04-21T15:57:26.030Z,20.50
2019-04-21T16:00:00.408Z,20.40
2019-04-21T16:02:34.851Z,20.30
2019-04-21T16:05:06.618Z,20.20
2019-04-21T16:07:36.212Z,20.30
2019-04-21T16:10:10.653Z,20.20
2019-04-21T16:12:40.157Z,20.30
2019-04-21T16:15:12.392Z,20.20
2019-04-21T16:17:41.802Z,20.20
2019-04-21T16:20:12.214Z,19.90
2019-04-21T16:22:42.327Z,19.80
2019-04-21T16:25:12.753Z,19.60
2019-04-21T16:27:41.650Z,19.50
2019-04-21T16:30:12.164Z,19.30
2019-04-21T16:32:42.415Z,19.30
2019-04-21T16:35:14.441Z,19.30
2019-04-21T16:37:43.663Z,19.00
2019-04-21T16:42:48.043Z,18.80
2019-04-21T16:45:18.837Z,18.80
2019-04-21T16:47:51.721Z,18.70
2019-04-21T16:50:21.383Z,18.70
2019-04-21T16:52:52.492Z,18.70
2019-04-21T16:55:33.175Z,18.60
2019-04-21T16:58:12.169Z,18.50
2019-04-21T17:00:42.486Z,18.40
2019-04-21T17:03:06.416Z,18.20
2019-04-21T17:05:36.275Z,18.10
2019-04-21T17:08:05.981Z,17.90
2019-04-21T17:10:35.439Z,17.80
2019-04-21T17:13:06.109Z,17.70
2019-04-21T17:15:51.749Z,17.50
2019-04-21T17:18:23.068Z,17.40
2019-04-21T17:20:45.059Z,17.40
2019-04-21T17:23:07.248Z,17.40
2019-04-21T17:25:37.053Z,17.40
2019-04-21T17:28:07.829Z,17.40
2019-04-21T17:30:36.943Z,17.50
2019-04-21T17:33:10.086Z,17.50
2019-04-21T17:35:36.933Z,17.40
2019-04-21T17:38:05.945Z,17.30
2019-04-21T17:40:35.729Z,17.20
2019-04-21T17:43:09.084Z,17.10
2019-04-21T17:45:37.192Z,17.10
2019-04-21T17:48:13.507Z,16.90
2019-04-21T17:50:45.514Z,16.80
2019-04-21T17:53:38.465Z,16.70
2019-04-21T17:56:25.985Z,16.60
2019-04-21T17:58:52.454Z,16.60
2019-04-21T18:01:25.336Z,16.50
2019-04-21T18:04:01.698Z,16.40
2019-04-21T18:06:26.152Z,16.40
2019-04-21T18:09:04.387Z,16.20
2019-04-21T18:11:22.778Z,16.10
2019-04-21T18:13:41.840Z,16.10
2019-04-21T18:16:23.049Z,16.00
2019-04-21T18:18:42.058Z,15.90
2019-04-21T18:21:21.122Z,15.90
2019-04-21T18:24:00.706Z,15.80
2019-04-21T18:26:34.719Z,15.80
2019-04-21T18:28:55.741Z,15.70
2019-04-21T18:31:26.971Z,15.70
2019-04-21T18:34:02.195Z,15.70
2019-04-21T18:36:38.406Z,15.60
2019-04-21T18:39:23.437Z,15.50
2019-04-21T18:42:02.533Z,15.50
2019-04-21T18:44:38.403Z,15.40
2019-04-21T18:47:12.182Z,15.40
2019-04-21T18:49:26.947Z,15.30
2019-04-21T18:52:22.407Z,15.20
2019-04-21T18:54:58.168Z,15.10
2019-04-21T18:57:26.599Z,15.00
2019-04-21T18:59:49.073Z,15.00
2019-04-21T19:02:20.763Z,14.90
2019-04-21T19:04:48.410Z,14.90
2019-04-21T19:07:32.716Z,14.80
2019-04-21T19:12:58.169Z,14.70
2019-04-21T19:15:04.808Z,14.60
2019-04-21T19:20:25.496Z,14.50
2019-04-21T19:22:35.984Z,14.50
2019-04-21T19:25:09.709Z,14.40
2019-04-21T19:27:45.594Z,14.30
2019-04-21T19:32:40.908Z,14.30
2019-04-21T19:34:59.402Z,14.20
2019-04-21T19:37:27.952Z,14.20
2019-04-21T19:40:09.560Z,14.10
2019-04-21T19:42:38.337Z,14.00
2019-04-21T19:45:14.966Z,14.00
2019-04-21T19:47:48.655Z,13.90
2019-04-21T19:50:19.482Z,13.90
2019-04-21T19:52:39.868Z,13.90
2019-04-21T19:55:00.564Z,13.90
2019-04-21T19:57:31.203Z,13.90
2019-04-21T20:00:03.777Z,14.00
2019-04-21T20:02:32.285Z,14.00
2019-04-21T20:05:06.996Z,14.00
2019-04-21T20:07:49.380Z,14.00
2019-04-21T20:10:24.034Z,14.00
2019-04-21T20:12:53.714Z,14.00
2019-04-21T20:15:33.011Z,13.90
2019-04-21T20:17:55.637Z,13.60
2019-04-21T20:20:09.006Z,13.50
2019-04-21T20:22:42.178Z,13.40
2019-04-21T20:25:15.216Z,13.40
2019-04-21T20:27:52.192Z,13.30
2019-04-21T20:30:29.815Z,13.30
2019-04-21T20:33:14.176Z,13.30
2019-04-21T20:35:42.960Z,13.30
2019-04-21T20:38:00.404Z,13.30
2019-04-21T20:40:25.291Z,13.30
2019-04-21T20:43:06.515Z,13.40
2019-04-21T20:45:33.511Z,13.30
2019-04-21T20:47:52.154Z,13.20
2019-04-21T20:50:29.870Z,13.20
2019-04-21T20:53:06.090Z,13.10
2019-04-21T20:55:26.479Z,13.00
2019-04-21T20:58:00.688Z,13.00
2019-04-21T21:00:41.231Z,12.90
2019-04-21T21:03:12.065Z,12.90
2019-04-21T21:05:35.864Z,12.90
2019-04-21T21:08:14.372Z,12.90
2019-04-21T21:10:40.066Z,12.80
2019-04-21T21:15:41.307Z,12.80
2019-04-21T21:18:26.241Z,12.80
2019-04-21T21:20:43.071Z,12.80
2019-04-21T21:23:09.940Z,12.70
2019-04-21T21:25:45.832Z,12.60
2019-04-21T21:28:04.498Z,12.50
2019-04-21T21:30:39.909Z,12.50
2019-04-21T21:33:21.430Z,12.50
2019-04-21T21:35:41.286Z,12.40
2019-04-21T21:38:19.969Z,12.40
2019-04-21T21:40:46.571Z,12.20
2019-04-21T21:43:01.522Z,12.10
2019-04-21T21:45:39.061Z,12.00
2019-04-21T21:48:18.764Z,11.90
2019-04-21T21:50:45.995Z,11.80
2019-04-21T21:53:08.406Z,11.80
2019-04-21T21:55:35.469Z,11.80
2019-04-21T21:58:04.418Z,11.70
2019-04-21T22:00:42.024Z,11.70
2019-04-21T22:03:14.957Z,11.70
2019-04-21T22:05:45.518Z,11.70
2019-04-21T22:08:10.162Z,11.60
2019-04-21T22:10:39.368Z,11.60
2019-04-21T22:13:12.829Z,11.60
2019-04-21T22:15:39.610Z,11.60
2019-04-21T22:18:33.362Z,11.50
2019-04-21T22:20:59.319Z,11.50
2019-04-21T22:23:25.445Z,11.50
2019-04-21T22:25:44.346Z,11.50
2019-04-21T22:28:15.651Z,11.50
2019-04-21T22:30:49.717Z,11.50
2019-04-21T22:33:18.082Z,11.50
2019-04-21T22:35:51.761Z,11.50
2019-04-21T22:38:34.824Z,11.50
2019-04-21T22:41:00.238Z,11.50
2019-04-21T22:43:26.187Z,11.50
2019-04-21T22:45:49.507Z,11.50
2019-04-21T22:48:38.733Z,11.50
2019-04-21T22:51:18.816Z,11.40
2019-04-21T22:53:44.547Z,11.40
2019-04-21T22:56:14.909Z,11.30
2019-04-21T22:58:43.959Z,11.20
2019-04-21T23:01:11.015Z,11.10
2019-04-21T23:03:50.271Z,11.10
2019-04-21T23:06:19.281Z,11.00
2019-04-21T23:08:45.399Z,11.00
2019-04-21T23:11:14.642Z,11.00
2019-04-21T23:13:45.041Z,11.00
2019-04-21T23:16:21.458Z,11.10
2019-04-21T23:19:05.936Z,11.30
2019-04-21T23:21:31.678Z,11.40
2019-04-21T23:24:05.842Z,11.50
2019-04-21T23:26:37.651Z,11.50
2019-04-21T23:29:08.938Z,11.60
2019-04-21T23:31:44.454Z,11.90
2019-04-21T23:33:52.558Z,12.00
2019-04-21T23:36:26.342Z,12.20
2019-04-21T23:38:55.041Z,12.20
2019-04-21T23:41:26.071Z,12.20
2019-04-21T23:44:00.393Z,12.10
2019-04-21T23:46:28.157Z,12.00
2019-04-21T23:49:09.858Z,11.90
2019-04-21T23:51:37.081Z,11.80
2019-04-21T23:53:57.412Z,11.80
2019-04-21T23:56:33.446Z,11.80
2019-04-21T23:59:02.976Z,11.70
